Time;durP1;ratioP1;P1;durP2;ratioP2;P2;SDS_P1;SDS_P2;PMS_P1;PMS_P2;Temp;Humidity;BMP_temperature;BMP_pressure;BME280_temperature;BME280_humidity;BME280_pressure;Samples;Min_cycle;Max_cycle;Signal;HPM_P1;HPM_P2
2021/11/25 00:01:39;;;;;;;0.77;0.70;;;21.00;60.20;;;;;;6214771;23;20007;-69
2021/11/25 00:04:04;;;;;;;0.70;0.70;;;21.00;60.20;;;;;;6214242;23;20004;-69
2021/11/25 00:06:30;;;;;;;0.93;0.90;;;21.00;60.30;;;;;;6214578;23;20492;-69
2021/11/25 00:08:55;;;;;;;1.17;0.68;;;21.00;60.20;;;;;;6214682;23;20467;-69
2021/11/25 00:11:21;;;;;;;0.70;0.70;;;21.00;60.20;;;;;;6214665;23;20007;-69
2021/11/25 00:13:47;;;;;;;1.13;0.70;;;21.00;60.30;;;;;;6188188;23;20039;-69
2021/11/25 00:16:12;;;;;;;0.50;0.50;;;21.00;60.20;;;;;;6214497;23;20072;-69
2021/11/25 00:18:38;;;;;;;0.70;0.70;;;21.00;60.30;;;;;;6214266;23;20068;-69
2021/11/25 00:21:04;;;;;;;1.33;0.70;;;21.10;60.40;;;;;;6214538;23;20340;-69
2021/11/25 00:23:30;;;;;;;1.30;0.70;;;21.00;60.40;;;;;;6188158;23;20000;-69
2021/11/25 00:25:56;;;;;;;0.90;0.70;;;21.00;60.30;;;;;;6214348;23;20483;-69
2021/11/25 00:28:21;;;;;;;0.98;0.90;;;21.00;60.40;;;;;;6187722;23;20358;-69
2021/11/25 00:30:47;;;;;;;0.85;0.70;;;21.00;60.40;;;;;;6214600;23;20003;-69
2021/11/25 00:33:13;;;;;;;2.13;0.60;;;21.00;60.40;;;;;;6213949;23;20463;-69
2021/11/25 00:35:38;;;;;;;0.80;0.77;;;21.00;60.40;;;;;;6188070;23;20001;-69
2021/11/25 00:38:05;;;;;;;0.75;0.70;;;21.00;60.40;;;;;;6214717;23;20000;-69
2021/11/25 00:40:31;;;;;;;1.85;0.68;;;21.00;60.40;;;;;;6214275;23;20054;-69
2021/11/25 00:42:56;;;;;;;0.93;0.70;;;21.00;60.40;;;;;;6214477;23;20009;-69
2021/11/25 00:45:22;;;;;;;1.63;0.90;;;21.00;60.40;;;;;;6187818;23;20005;-69
2021/11/25 00:47:48;;;;;;;1.15;0.70;;;21.00;60.40;;;;;;6187573;23;19997;-69
2021/11/25 00:50:14;;;;;;;1.13;0.80;;;21.00;60.50;;;;;;6216062;23;20019;-69
2021/11/25 00:52:40;;;;;;;0.60;0.60;;;21.00;60.40;;;;;;6190110;23;19996;-69
2021/11/25 00:55:06;;;;;;;0.73;0.73;;;21.00;60.50;;;;;;6216487;23;20012;-69
2021/11/25 00:57:32;;;;;;;0.90;0.77;;;21.00;60.50;;;;;;6216317;23;20055;-69
2021/11/25 00:59:57;;;;;;;0.70;0.70;;;21.00;60.50;;;;;;6189770;23;20004;-69
2021/11/25 01:02:23;;;;;;;0.95;0.85;;;21.00;60.50;;;;;;6189795;23;20075;-69
2021/11/25 01:04:49;;;;;;;0.75;0.70;;;21.00;60.60;;;;;;6216422;23;20071;-69
2021/11/25 01:07:14;;;;;;;0.70;0.63;;;21.00;60.60;;;;;;6216317;23;20401;-69
2021/11/25 01:09:40;;;;;;;1.92;0.80;;;21.00;60.60;;;;;;6216281;23;20058;-69
2021/11/25 01:12:06;;;;;;;0.70;0.70;;;21.00;60.60;;;;;;6216476;23;20325;-69
2021/11/25 01:14:33;;;;;;;1.05;0.70;;;21.00;60.70;;;;;;6189168;23;20011;-69
2021/11/25 01:16:59;;;;;;;0.75;0.75;;;21.00;60.60;;;;;;6190116;23;20004;-69
2021/11/25 01:19:25;;;;;;;0.82;0.68;;;21.00;60.70;;;;;;6216144;23;20005;-69
2021/11/25 01:21:51;;;;;;;0.77;0.68;;;20.90;60.60;;;;;;6216524;23;20008;-69
2021/11/25 01:24:16;;;;;;;0.75;0.73;;;21.00;60.70;;;;;;6189586;23;20075;-69
2021/11/25 01:26:42;;;;;;;0.98;0.70;;;21.00;60.70;;;;;;6189715;23;20448;-69
2021/11/25 01:29:08;;;;;;;0.90;0.77;;;21.00;60.70;;;;;;6189328;23;20083;-69
2021/11/25 01:31:34;;;;;;;1.35;0.63;;;21.00;60.70;;;;;;6216063;23;20001;-69
2021/11/25 01:33:59;;;;;;;0.50;0.50;;;21.00;60.80;;;;;;6165069;23;20008;-69
2021/11/25 01:36:25;;;;;;;0.60;0.60;;;20.90;60.70;;;;;;6164841;23;20004;-69
2021/11/25 01:38:51;;;;;;;0.63;0.63;;;21.00;60.70;;;;;;6216217;23;20008;-69
2021/11/25 01:41:17;;;;;;;0.93;0.70;;;21.00;60.80;;;;;;6216180;23;20059;-69
2021/11/25 01:43:43;;;;;;;0.57;0.57;;;21.00;60.80;;;;;;6215677;23;20012;-69
2021/11/25 01:46:13;;;;;;;0.80;0.80;;;20.90;60.70;;;;;;6216152;23;20001;-69
2021/11/25 01:48:39;;;;;;;0.70;0.70;;;21.00;60.80;;;;;;6165452;23;20024;-69
2021/11/25 01:51:05;;;;;;;1.70;0.60;;;21.00;60.80;;;;;;6215940;23;20440;-69
2021/11/25 01:53:30;;;;;;;0.80;0.80;;;21.00;60.80;;;;;;6189434;23;20080;-69
2021/11/25 01:55:57;;;;;;;0.70;0.70;;;21.00;60.80;;;;;;6215984;23;20058;-69
2021/11/25 01:58:23;;;;;;;0.77;0.75;;;21.00;60.80;;;;;;6189284;23;20005;-69
2021/11/25 02:00:53;;;;;;;1.40;0.93;;;21.00;60.80;;;;;;6215351;23;20012;-69
2021/11/25 02:03:19;;;;;;;0.85;0.75;;;21.00;60.80;;;;;;6189668;23;20428;-69
2021/11/25 02:05:45;;;;;;;0.60;0.60;;;21.00;60.90;;;;;;6189393;23;20000;-69
2021/11/25 02:08:11;;;;;;;0.80;0.70;;;21.00;60.90;;;;;;6164634;23;20447;-69
2021/11/25 02:10:38;;;;;;;0.88;0.88;;;21.00;60.90;;;;;;6215689;23;19997;-69
2021/11/25 02:13:04;;;;;;;1.67;0.68;;;21.00;60.90;;;;;;6164534;23;20100;-69
2021/11/25 02:15:35;;;;;;;2.90;0.80;;;21.00;60.90;;;;;;6215631;23;20032;-69
2021/11/25 02:18:09;;;;;;;0.65;0.65;;;20.90;60.90;;;;;;6215895;23;20462;-69
2021/11/25 02:20:35;;;;;;;0.47;0.47;;;21.00;62.00;;;;;;6189217;23;20000;-69
2021/11/25 02:23:01;;;;;;;0.70;0.63;;;20.90;60.90;;;;;;6189355;23;20075;-69
2021/11/25 02:25:27;;;;;;;0.57;0.57;;;20.90;60.90;;;;;;6215670;23;20424;-69
2021/11/25 02:27:52;;;;;;;0.57;0.50;;;20.90;60.90;;;;;;6188530;23;20008;-69
2021/11/25 02:30:18;;;;;;;0.68;0.68;;;20.90;61.00;;;;;;6189082;23;20001;-69
2021/11/25 02:32:47;;;;;;;0.60;0.60;;;20.90;61.00;;;;;;6189289;23;20007;-69
2021/11/25 02:35:15;;;;;;;0.75;0.60;;;20.90;61.00;;;;;;6189767;23;20005;-69
2021/11/25 02:37:41;;;;;;;0.75;0.65;;;20.90;61.00;;;;;;6189316;23;20008;-69
2021/11/25 02:40:32;;;;;;;0.55;0.50;;;20.90;61.00;;;;;;6189191;23;20009;-69
2021/11/25 02:43:04;;;;;;;0.68;0.60;;;20.90;61.00;;;;;;6215200;23;20027;-69
2021/11/25 02:45:29;;;;;;;0.70;0.60;;;20.90;61.00;;;;;;6165080;23;20024;-69
2021/11/25 02:47:55;;;;;;;0.60;0.60;;;20.90;61.00;;;;;;6215501;23;20336;-69
2021/11/25 02:50:24;;;;;;;1.48;0.68;;;20.90;61.10;;;;;;6215148;23;19997;-69
2021/11/25 02:52:50;;;;;;;1.60;0.80;;;20.90;61.10;;;;;;6164459;23;20024;-69
2021/11/25 02:55:17;;;;;;;0.65;0.65;;;20.90;61.10;;;;;;6189183;23;20005;-69
2021/11/25 02:57:43;;;;;;;0.43;0.43;;;20.90;61.10;;;;;;6214963;23;20100;-69
2021/11/25 03:00:30;;;;;;;0.90;0.60;;;20.90;61.10;;;;;;6189203;23;20032;-69
2021/11/25 03:03:16;;;;;;;0.75;0.60;;;20.90;61.10;;;;;;6188693;23;20025;-69
2021/11/25 03:05:44;;;;;;;0.85;0.50;;;20.90;61.30;;;;;;6214320;23;20067;-69
2021/11/25 03:08:10;;;;;;;0.80;0.70;;;20.90;61.20;;;;;;6188816;23;20007;-69
2021/11/25 03:10:43;;;;;;;0.77;0.63;;;20.90;61.20;;;;;;6188235;23;20004;-69
2021/11/25 03:13:10;;;;;;;0.60;0.60;;;20.90;61.20;;;;;;6214963;23;20291;-69
2021/11/25 03:15:37;;;;;;;0.55;0.55;;;20.90;61.20;;;;;;6188719;23;20055;-69
2021/11/25 03:18:03;;;;;;;0.80;0.70;;;20.90;61.30;;;;;;6189197;23;20008;-69
2021/11/25 03:20:28;;;;;;;1.20;0.70;;;20.80;61.20;;;;;;6214914;23;20007;-69
2021/11/25 03:22:54;;;;;;;1.17;0.80;;;20.90;61.20;;;;;;6215136;23;20008;-69
2021/11/25 03:25:21;;;;;;;0.70;0.70;;;20.90;61.20;;;;;;6214772;23;20005;-69
2021/11/25 03:27:46;;;;;;;0.60;0.60;;;20.90;61.30;;;;;;6163850;23;20112;-69
2021/11/25 03:30:12;;;;;;;0.60;0.60;;;20.90;61.30;;;;;;6163959;23;20447;-69
2021/11/25 03:32:38;;;;;;;1.58;0.50;;;20.90;61.30;;;;;;6163672;23;20062;-69
2021/11/25 03:35:04;;;;;;;0.50;0.50;;;20.90;61.30;;;;;;6214987;23;20004;-69
2021/11/25 03:37:29;;;;;;;0.45;0.45;;;20.90;61.30;;;;;;6188367;23;20011;-69
2021/11/25 03:39:56;;;;;;;0.88;0.70;;;20.90;61.30;;;;;;6214762;23;20032;-69
2021/11/25 03:42:22;;;;;;;3.08;0.77;;;20.90;61.40;;;;;;6214867;23;20366;-69
2021/11/25 03:44:49;;;;;;;0.50;0.50;;;20.90;61.40;;;;;;6214753;23;20055;-69
2021/11/25 03:47:15;;;;;;;0.55;0.47;;;20.90;61.30;;;;;;6215238;23;19996;-69
2021/11/25 03:49:41;;;;;;;0.50;0.50;;;20.90;61.40;;;;;;6214682;23;20004;-69
2021/11/25 03:52:06;;;;;;;0.55;0.55;;;20.90;61.40;;;;;;6214802;23;20012;-69
2021/11/25 03:54:32;;;;;;;0.60;0.60;;;20.90;61.40;;;;;;6214250;23;20000;-69
2021/11/25 03:56:58;;;;;;;0.60;0.47;;;20.90;61.50;;;;;;6188245;23;20007;-69
2021/11/25 03:59:23;;;;;;;0.60;0.60;;;20.90;61.50;;;;;;6214919;23;20075;-69
2021/11/25 04:01:49;;;;;;;0.60;0.60;;;20.90;61.60;;;;;;6163433;23;19996;-69
2021/11/25 04:04:15;;;;;;;0.45;0.45;;;20.90;61.50;;;;;;6214582;23;20001;-69
2021/11/25 04:06:40;;;;;;;0.93;0.65;;;20.90;61.50;;;;;;6214568;23;20008;-69
2021/11/25 04:09:06;;;;;;;0.52;0.47;;;20.80;61.50;;;;;;6187807;23;20004;-69
2021/11/25 04:11:32;;;;;;;0.60;0.60;;;20.90;61.50;;;;;;6188163;23;20499;-69
2021/11/25 04:14:00;;;;;;;0.65;0.65;;;20.90;61.60;;;;;;6214757;23;20004;-69
2021/11/25 04:16:26;;;;;;;0.55;0.50;;;20.90;61.60;;;;;;6214453;23;20008;-69
2021/11/25 04:18:51;;;;;;;0.60;0.50;;;20.90;61.60;;;;;;6188184;23;20008;-69
2021/11/25 04:21:17;;;;;;;1.02;0.63;;;20.90;61.60;;;;;;6188091;23;20112;-69
2021/11/25 04:23:43;;;;;;;0.73;0.57;;;20.90;61.60;;;;;;6213713;23;20007;-69
2021/11/25 04:26:08;;;;;;;0.60;0.60;;;20.90;61.60;;;;;;6187947;23;20008;-69
2021/11/25 04:28:34;;;;;;;0.50;0.50;;;20.90;61.60;;;;;;6214232;23;20021;-69
2021/11/25 04:36:28;;;;;;;0.68;0.55;;;20.90;61.70;;;;;;6214416;23;20063;-69
2021/11/25 04:38:54;;;;;;;0.60;0.60;;;20.90;61.80;;;;;;6214081;23;20008;-69
2021/11/25 04:41:19;;;;;;;1.00;0.55;;;20.90;61.70;;;;;;6214576;23;20341;-69
2021/11/25 04:43:45;;;;;;;1.02;0.50;;;20.80;61.70;;;;;;6214311;23;20000;-69
2021/11/25 04:46:10;;;;;;;0.80;0.70;;;20.90;61.80;;;;;;6214457;23;20005;-69
2021/11/25 04:48:36;;;;;;;0.52;0.52;;;20.90;61.80;;;;;;6214311;23;20050;-69
2021/11/25 04:51:02;;;;;;;0.50;0.50;;;20.90;61.90;;;;;;6214214;23;19997;-69
2021/11/25 04:53:28;;;;;;;0.50;0.50;;;20.90;61.80;;;;;;6214125;23;20000;-69
2021/11/25 04:55:53;;;;;;;0.50;0.50;;;20.80;61.80;;;;;;6187743;23;20456;-69
2021/11/25 04:58:19;;;;;;;0.63;0.40;;;20.90;61.90;;;;;;6163258;23;20001;-69
2021/11/25 05:00:45;;;;;;;0.55;0.55;;;20.90;61.90;;;;;;6214222;23;20400;-69
2021/11/25 05:03:10;;;;;;;0.60;0.60;;;20.90;61.90;;;;;;6187832;23;20004;-69
2021/11/25 05:05:36;;;;;;;0.50;0.50;;;20.90;61.90;;;;;;6187700;23;20039;-69
2021/11/25 05:08:02;;;;;;;0.50;0.50;;;20.90;61.90;;;;;;6187555;23;20000;-69
2021/11/25 05:10:28;;;;;;;0.43;0.43;;;20.90;62.00;;;;;;6163065;23;19996;-69
2021/11/25 05:12:53;;;;;;;0.60;0.50;;;20.80;61.90;;;;;;6162974;23;20450;-69
2021/11/25 05:15:19;;;;;;;1.48;0.60;;;20.90;62.00;;;;;;6214439;23;20009;-69
2021/11/25 05:17:44;;;;;;;0.70;0.70;;;20.90;62.00;;;;;;6214133;23;20005;-69
2021/11/25 05:20:11;;;;;;;0.50;0.50;;;20.90;62.00;;;;;;6163293;23;20336;-69
2021/11/25 05:22:37;;;;;;;0.55;0.55;;;20.90;62.00;;;;;;6187520;23;20009;-69
2021/11/25 05:25:05;;;;;;;0.50;0.50;;;20.90;62.10;;;;;;6187897;23;20004;-69
2021/11/25 05:27:30;;;;;;;0.52;0.52;;;20.90;62.10;;;;;;6187674;23;20009;-69
2021/11/25 05:29:56;;;;;;;0.57;0.52;;;20.90;62.10;;;;;;6214258;23;20096;-69
2021/11/25 05:32:21;;;;;;;0.60;0.60;;;20.90;62.10;;;;;;6214337;23;19997;-69
2021/11/25 05:34:47;;;;;;;0.60;0.60;;;20.90;62.10;;;;;;6214662;23;20000;-69
2021/11/25 05:37:14;;;;;;;0.65;0.50;;;20.90;62.20;;;;;;6215837;23;20063;-69
2021/11/25 05:39:40;;;;;;;0.50;0.50;;;20.90;62.10;;;;;;6164832;23;20332;-69
2021/11/25 05:42:05;;;;;;;0.40;0.40;;;20.90;62.10;;;;;;6216324;23;20008;-69
2021/11/25 05:44:31;;;;;;;0.40;0.40;;;20.90;62.20;;;;;;6189365;23;20019;-69
2021/11/25 05:46:57;;;;;;;1.00;0.60;;;20.90;62.20;;;;;;6215893;23;20008;-69
2021/11/25 05:49:22;;;;;;;0.40;0.40;;;20.90;62.20;;;;;;6216251;23;20004;-69
2021/11/25 05:51:48;;;;;;;0.55;0.55;;;20.80;62.10;;;;;;6215472;23;19997;-69
2021/11/25 05:54:13;;;;;;;0.70;0.50;;;20.90;62.20;;;;;;6216126;23;20229;-69
2021/11/25 05:56:39;;;;;;;0.40;0.40;;;20.90;62.20;;;;;;6216243;23;20011;-69
2021/11/25 05:59:05;;;;;;;0.40;0.40;;;20.90;62.30;;;;;;6189462;23;20523;-69
2021/11/25 06:01:30;;;;;;;0.50;0.50;;;20.90;62.30;;;;;;6216050;23;20047;-69
2021/11/25 06:03:56;;;;;;;0.47;0.40;;;20.90;62.30;;;;;;6215829;23;20357;-69
2021/11/25 06:06:22;;;;;;;0.40;0.40;;;20.90;62.40;;;;;;6189054;23;20028;-69
2021/11/25 06:08:48;;;;;;;0.40;0.40;;;20.90;62.40;;;;;;6189361;23;20024;-69
2021/11/25 06:11:14;;;;;;;0.40;0.40;;;20.90;62.40;;;;;;6189542;23;20000;-69
2021/11/25 06:13:39;;;;;;;0.30;0.30;;;20.90;62.40;;;;;;6215706;23;20009;-69
2021/11/25 06:16:05;;;;;;;0.40;0.40;;;20.90;62.40;;;;;;6164463;23;20005;-69
2021/11/25 06:18:31;;;;;;;0.40;0.40;;;20.90;62.40;;;;;;6164469;23;20040;-69
2021/11/25 06:20:56;;;;;;;0.40;0.40;;;20.90;62.40;;;;;;6215103;23;20080;-69
2021/11/25 06:23:22;;;;;;;0.40;0.40;;;20.90;62.40;;;;;;6189522;23;20322;-69
2021/11/25 06:25:48;;;;;;;0.30;0.30;;;20.90;62.50;;;;;;6215342;23;20059;-69
2021/11/25 06:28:14;;;;;;;0.40;0.40;;;20.90;62.50;;;;;;6188125;23;20020;-69
2021/11/25 06:30:39;;;;;;;0.75;0.40;;;20.90;62.50;;;;;;6163798;23;19996;-68
2021/11/25 06:33:05;;;;;;;7.15;0.70;;;20.90;62.70;;;;;;6188471;23;20070;-68
2021/11/25 06:35:31;;;;;;;0.52;0.52;;;20.90;62.50;;;;;;6163103;23;20011;-68
2021/11/25 06:37:56;;;;;;;0.50;0.40;;;20.90;62.50;;;;;;6214399;23;20012;-68
2021/11/25 06:40:25;;;;;;;0.40;0.40;;;20.90;62.40;;;;;;6188271;23;20005;-69
2021/11/25 06:42:52;;;;;;;0.40;0.40;;;20.80;62.40;;;;;;6188193;23;20434;-69
2021/11/25 06:45:18;;;;;;;5.20;0.63;;;20.80;62.40;;;;;;6187943;23;20000;-69
2021/11/25 06:47:46;;;;;;;0.45;0.43;;;20.80;62.40;;;;;;6163231;23;20012;-69
2021/11/25 06:50:12;;;;;;;0.43;0.43;;;20.80;62.30;;;;;;6189121;23;19996;-69
2021/11/25 06:52:38;;;;;;;0.35;0.35;;;20.80;62.30;;;;;;6215255;23;20008;-69
2021/11/25 06:55:04;;;;;;;0.40;0.40;;;20.80;62.30;;;;;;6188671;23;20009;-69
2021/11/25 06:57:30;;;;;;;0.60;0.40;;;20.70;62.20;;;;;;6215193;23;20007;-69
2021/11/25 06:59:55;;;;;;;0.30;0.30;;;20.70;62.20;;;;;;6188651;23;20058;-69
2021/11/25 07:02:21;;;;;;;1.08;0.40;;;20.70;62.20;;;;;;6215588;23;20030;-69
2021/11/25 07:04:46;;;;;;;0.57;0.50;;;20.70;62.20;;;;;;6188027;23;20028;-69
2021/11/25 07:07:12;;;;;;;0.40;0.40;;;20.70;62.10;;;;;;6188661;23;20503;-69
2021/11/25 07:09:38;;;;;;;0.73;0.40;;;20.70;62.20;;;;;;6188448;23;20329;-69
2021/11/25 07:12:04;;;;;;;0.30;0.30;;;20.70;62.00;;;;;;6215034;23;19997;-69
2021/11/25 07:14:29;;;;;;;0.40;0.38;;;20.60;62.00;;;;;;6215402;23;20000;-69
2021/11/25 07:16:56;;;;;;;0.40;0.40;;;20.60;61.90;;;;;;6188472;23;20051;-69
2021/11/25 07:19:22;;;;;;;0.40;0.40;;;20.70;61.90;;;;;;6189041;23;20031;-69
2021/11/25 07:21:48;;;;;;;0.30;0.30;;;20.70;61.90;;;;;;6214797;23;19997;-69
2021/11/25 07:24:13;;;;;;;0.40;0.40;;;20.60;61.80;;;;;;6188265;23;20004;-69
2021/11/25 07:26:39;;;;;;;0.30;0.30;;;20.60;61.80;;;;;;6188364;23;20013;-69
2021/11/25 07:29:04;;;;;;;0.30;0.30;;;20.60;61.80;;;;;;6214537;23;20004;-69
2021/11/25 07:31:33;;;;;;;0.40;0.30;;;20.60;61.70;;;;;;6214828;23;20004;-70
2021/11/25 07:33:58;;;;;;;2.50;0.70;;;20.60;61.70;;;;;;6163604;23;20071;-70
2021/11/25 07:36:24;;;;;;;7.55;1.70;;;20.60;61.70;;;;;;6214890;23;20035;-70
2021/11/25 07:38:50;;;;;;;11.02;2.28;;;20.60;61.70;;;;;;6188204;23;20430;-70
2021/11/25 07:41:16;;;;;;;6.20;1.40;;;20.60;61.70;;;;;;6214568;23;20041;-70
2021/11/25 07:43:41;;;;;;;10.52;2.10;;;20.60;61.70;;;;;;6214918;23;20471;-70
2021/11/25 07:46:07;;;;;;;7.03;1.70;;;20.60;61.70;;;;;;6214206;23;20001;-70
2021/11/25 07:48:32;;;;;;;5.15;1.95;;;20.60;61.60;;;;;;6214495;23;20001;-70
2021/11/25 07:50:59;;;;;;;5.43;1.50;;;20.60;61.70;;;;;;6214591;23;20059;-70
2021/11/25 07:53:25;;;;;;;3.25;1.30;;;20.60;61.60;;;;;;6188646;23;20000;-70
2021/11/25 07:55:50;;;;;;;5.32;1.33;;;20.60;61.60;;;;;;6214617;23;20096;-70
2021/11/25 07:58:16;;;;;;;4.47;1.48;;;20.60;61.50;;;;;;6214586;23;20004;-70
2021/11/25 08:00:42;;;;;;;4.45;1.52;;;20.60;61.50;;;;;;6188103;23;20005;-70
2021/11/25 08:03:07;;;;;;;4.00;1.25;;;20.60;61.50;;;;;;6214496;23;20008;-70
2021/11/25 08:05:33;;;;;;;5.47;1.40;;;20.60;61.40;;;;;;6214650;23;20001;-70
2021/11/25 08:07:59;;;;;;;3.38;1.17;;;20.60;61.40;;;;;;6214507;23;19996;-70
2021/11/25 08:10:26;;;;;;;5.95;1.27;;;20.60;61.40;;;;;;6214643;23;20337;-70
2021/11/25 08:12:51;;;;;;;3.70;1.23;;;20.60;61.40;;;;;;6214689;23;20066;-70
2021/11/25 08:15:17;;;;;;;2.75;1.10;;;20.60;61.30;;;;;;6163131;23;20506;-70
2021/11/25 08:17:43;;;;;;;3.78;0.88;;;20.60;61.30;;;;;;6188127;23;20001;-70
2021/11/25 08:20:09;;;;;;;2.72;1.10;;;20.60;61.30;;;;;;6214385;23;20444;-70
2021/11/25 08:22:35;;;;;;;4.00;1.27;;;20.60;61.30;;;;;;6188058;23;20445;-70
2021/11/25 08:25:02;;;;;;;3.45;1.38;;;20.60;61.30;;;;;;6187725;23;20079;-70
2021/11/25 08:27:28;;;;;;;2.58;1.10;;;20.60;61.20;;;;;;6188435;23;20020;-70
2021/11/25 08:29:54;;;;;;;2.35;1.05;;;20.60;61.20;;;;;;6213907;23;20062;-70
2021/11/25 08:32:19;;;;;;;3.55;1.05;;;20.60;61.20;;;;;;6188103;23;20344;-70
2021/11/25 08:34:45;;;;;;;3.42;1.55;;;20.60;61.20;;;;;;6214627;23;20007;-70
2021/11/25 08:37:11;;;;;;;4.10;1.23;;;20.60;61.20;;;;;;6214229;23;20005;-70
2021/11/25 08:39:37;;;;;;;3.38;1.20;;;20.60;61.20;;;;;;6188069;23;20056;-70
2021/11/25 08:42:05;;;;;;;4.93;0.85;;;20.60;61.10;;;;;;6214437;23;20007;-70
2021/11/25 08:44:30;;;;;;;2.47;0.90;;;20.60;61.10;;;;;;6187542;23;20004;-70
2021/11/25 08:46:56;;;;;;;3.05;1.10;;;20.60;61.10;;;;;;6214437;23;20058;-70
2021/11/25 08:49:22;;;;;;;3.25;0.95;;;20.60;61.10;;;;;;6214516;23;20031;-70
2021/11/25 08:51:47;;;;;;;3.30;1.10;;;20.60;61.10;;;;;;6188113;23;20000;-70
2021/11/25 08:54:13;;;;;;;2.70;1.17;;;20.60;61.10;;;;;;6187863;23;20005;-70
2021/11/25 08:56:39;;;;;;;3.25;1.10;;;20.60;61.10;;;;;;6214943;23;20023;-70
2021/11/25 08:59:04;;;;;;;1.80;1.08;;;20.60;61.00;;;;;;6162618;23;20000;-70
2021/11/25 09:01:30;;;;;;;1.30;0.90;;;20.60;61.00;;;;;;6188263;23;20007;-70
2021/11/25 09:03:56;;;;;;;1.95;0.73;;;20.60;61.00;;;;;;6163427;23;20004;-70
2021/11/25 09:06:21;;;;;;;2.72;1.35;;;20.60;61.00;;;;;;6187861;23;20336;-70
2021/11/25 09:08:47;;;;;;;1.80;0.98;;;20.60;61.00;;;;;;6214670;23;20444;-70
2021/11/25 09:11:15;;;;;;;3.38;1.00;;;20.60;60.90;;;;;;6189402;23;20008;-70
2021/11/25 09:13:41;;;;;;;2.17;0.65;;;20.60;61.00;;;;;;6189954;23;20001;-70
2021/11/25 09:16:07;;;;;;;2.25;0.80;;;20.60;60.90;;;;;;6216337;23;20031;-70
2021/11/25 09:18:32;;;;;;;2.50;0.80;;;20.60;60.90;;;;;;6216336;23;20415;-70
2021/11/25 09:20:58;;;;;;;1.98;0.68;;;20.60;60.80;;;;;;6189737;23;20058;-70
2021/11/25 09:23:24;;;;;;;2.45;0.90;;;20.60;60.80;;;;;;6189888;23;20090;-70
2021/11/25 09:25:51;;;;;;;1.20;0.77;;;20.60;60.80;;;;;;6189694;23;20012;-70
2021/11/25 09:28:18;;;;;;;0.60;0.60;;;20.60;60.80;;;;;;6189172;23;20087;-70
2021/11/25 09:30:44;;;;;;;1.77;0.80;;;20.60;60.80;;;;;;6216250;23;20074;-70
2021/11/25 09:33:10;;;;;;;1.30;0.60;;;20.60;60.80;;;;;;6189630;23;20001;-70
2021/11/25 09:35:36;;;;;;;1.75;0.70;;;20.60;60.80;;;;;;6189785;23;20059;-70
2021/11/25 09:38:02;;;;;;;2.17;0.73;;;20.60;60.70;;;;;;6216185;23;20004;-70
2021/11/25 09:40:28;;;;;;;1.80;0.80;;;20.60;60.70;;;;;;6189699;23;20344;-70
2021/11/25 09:43:20;;;;;;;0.93;0.75;;;20.60;60.70;;;;;;6215675;23;20344;-70
2021/11/25 09:45:49;;;;;;;1.70;1.05;;;20.60;60.50;;;;;;6190697;23;20008;-70
2021/11/25 09:48:14;;;;;;;2.03;0.98;;;20.60;60.70;;;;;;6166145;23;20024;-70
2021/11/25 09:50:44;;;;;;;1.38;0.70;;;20.60;60.70;;;;;;6164882;23;20447;-70
2021/11/25 09:53:10;;;;;;;2.45;0.85;;;20.60;60.60;;;;;;6215802;23;20007;-70
2021/11/25 09:55:37;;;;;;;2.05;0.98;;;20.60;60.60;;;;;;6189539;23;20000;-70
2021/11/25 09:58:03;;;;;;;1.67;0.68;;;20.60;60.60;;;;;;6189416;23;20004;-70
2021/11/25 10:00:31;;;;;;;1.30;0.75;;;20.60;60.60;;;;;;6215926;23;20127;-70
2021/11/25 10:02:57;;;;;;;1.63;0.93;;;20.60;60.50;;;;;;6190041;23;20005;-70
2021/11/25 10:05:22;;;;;;;0.77;0.50;;;20.60;60.50;;;;;;6215703;23;20321;-70
2021/11/25 10:07:48;;;;;;;0.57;0.57;;;20.60;60.50;;;;;;6164666;23;20005;-70
2021/11/25 10:10:31;;;;;;;0.80;0.60;;;20.60;60.50;;;;;;6215692;23;20001;-70
2021/11/25 10:13:01;;;;;;;1.13;0.65;;;20.60;60.40;;;;;;6189410;23;20028;-70
2021/11/25 10:15:33;;;;;;;1.80;0.90;;;20.60;60.50;;;;;;6165897;23;20004;-70
2021/11/25 10:18:01;;;;;;;1.40;0.60;;;20.60;60.40;;;;;;6164755;23;20401;-69
2021/11/25 10:20:49;;;;;;;1.55;0.70;;;20.60;60.50;;;;;;6215468;23;20026;-69
2021/11/25 10:23:23;;;;;;;1.90;0.40;;;20.60;60.30;;;;;;6188878;23;20009;-69
2021/11/25 10:26:00;;;;;;;0.93;0.50;;;20.60;60.40;;;;;;6188691;23;20005;-69
2021/11/25 10:28:36;;;;;;;0.98;0.70;;;20.60;60.40;;;;;;6189154;23;20017;-70
2021/11/25 10:31:15;;;;;;;0.50;0.50;;;20.60;60.40;;;;;;6215452;23;20004;-70
2021/11/25 10:33:57;;;;;;;1.77;0.70;;;20.60;60.40;;;;;;6189146;23;19996;-70
2021/11/25 10:42:35;;;;;;;1.02;0.55;;;20.50;60.10;;;;;;6073403;23;20043;-70
2021/11/25 10:45:01;;;;;;;1.95;0.52;;;20.50;60.20;;;;;;6070621;23;20429;-70
2021/11/25 10:47:28;;;;;;;0.95;0.40;;;20.50;60.30;;;;;;6094222;23;20034;-70
2021/11/25 10:49:58;;;;;;;1.33;0.50;;;20.50;60.30;;;;;;6070632;23;20114;-70
2021/11/25 10:52:29;;;;;;;1.38;0.80;;;20.50;60.30;;;;;;6070438;23;20062;-70
2021/11/25 10:55:01;;;;;;;2.10;0.80;;;20.50;60.20;;;;;;6070724;23;20010;-70
2021/11/25 10:57:40;;;;;;;0.65;0.50;;;20.50;60.20;;;;;;6070177;23;20006;-70
2021/11/25 11:00:21;;;;;;;0.68;0.57;;;20.60;60.20;;;;;;6094102;23;20017;-70
2021/11/25 11:02:47;;;;;;;0.98;0.60;;;20.50;60.10;;;;;;6094536;23;20010;-70
2021/11/25 11:05:17;;;;;;;0.52;0.50;;;20.50;60.20;;;;;;6093919;23;20038;-70
2021/11/25 11:07:46;;;;;;;0.93;0.40;;;20.50;60.10;;;;;;6070886;23;20013;-70
2021/11/25 11:10:21;;;;;;;0.70;0.50;;;20.50;60.10;;;;;;6070348;23;20030;-70
2021/11/25 11:12:59;;;;;;;1.13;0.57;;;20.50;60.10;;;;;;6094270;23;20041;-70
2021/11/25 11:15:27;;;;;;;2.25;0.60;;;20.50;60.10;;;;;;6072467;23;20018;-70
2021/11/25 11:18:01;;;;;;;0.68;0.50;;;20.50;60.00;;;;;;6169975;23;20032;-70
2021/11/25 11:20:28;;;;;;;0.98;0.73;;;20.50;60.00;;;;;;6190020;23;20054;-70
2021/11/25 11:22:59;;;;;;;1.25;0.65;;;20.50;60.00;;;;;;6215241;23;20011;-70
2021/11/25 11:25:25;;;;;;;1.05;0.50;;;20.50;60.00;;;;;;6188091;23;20000;-70
2021/11/25 11:27:55;;;;;;;1.52;0.73;;;20.50;60.00;;;;;;6158804;23;20017;-70
2021/11/25 11:30:21;;;;;;;1.27;0.60;;;20.60;60.00;;;;;;6183336;23;19997;-70
2021/11/25 11:32:47;;;;;;;0.88;0.52;;;20.50;59.90;;;;;;6158887;23;19997;-70
2021/11/25 11:35:14;;;;;;;0.73;0.30;;;20.50;59.90;;;;;;6185179;23;20369;-70
2021/11/25 11:37:40;;;;;;;1.02;0.50;;;20.50;59.90;;;;;;6184996;23;20025;-70
2021/11/25 11:40:08;;;;;;;0.60;0.40;;;20.50;59.90;;;;;;6183117;23;20382;-70
2021/11/25 11:42:34;;;;;;;0.82;0.43;;;20.50;59.80;;;;;;6158814;23;20352;-70
2021/11/25 11:45:01;;;;;;;0.63;0.40;;;20.50;59.80;;;;;;6183360;23;20009;-70
2021/11/25 11:47:27;;;;;;;0.63;0.40;;;20.50;59.70;;;;;;6183349;23;20005;-70
2021/11/25 11:49:52;;;;;;;0.40;0.40;;;20.50;59.80;;;;;;6183433;23;19997;-70
2021/11/25 11:52:21;;;;;;;1.10;0.60;;;20.50;59.80;;;;;;6158256;23;20016;-70
2021/11/25 11:54:57;;;;;;;0.65;0.52;;;20.50;59.80;;;;;;6158607;23;20512;-70
2021/11/25 11:57:30;;;;;;;0.90;0.50;;;20.50;59.70;;;;;;6159850;23;20075;-70
2021/11/25 12:00:03;;;;;;;1.83;0.30;;;20.50;59.70;;;;;;6184758;23;20001;-70
2021/11/25 12:02:44;;;;;;;0.90;0.40;;;20.50;59.70;;;;;;6184639;23;20001;-70
2021/11/25 12:05:10;;;;;;;0.50;0.32;;;20.50;59.70;;;;;;6184415;23;20001;-70
2021/11/25 12:07:37;;;;;;;0.65;0.40;;;20.50;59.70;;;;;;6182864;23;20040;-70
2021/11/25 12:10:03;;;;;;;0.50;0.40;;;20.50;59.70;;;;;;6158870;23;20024;-70
2021/11/25 12:12:29;;;;;;;0.70;0.60;;;20.50;59.60;;;;;;6182880;23;20005;-70
2021/11/25 12:14:56;;;;;;;0.68;0.40;;;20.50;59.60;;;;;;6184700;23;20123;-70
2021/11/25 12:17:29;;;;;;;0.75;0.40;;;20.50;60.60;;;;;;6184576;23;20019;-70
2021/11/25 12:19:55;;;;;;;0.50;0.40;;;20.50;59.60;;;;;;6183065;23;20009;-70
2021/11/25 12:22:21;;;;;;;0.80;0.45;;;20.50;59.60;;;;;;6182492;23;20005;-70
2021/11/25 12:24:53;;;;;;;1.10;0.40;;;20.50;59.70;;;;;;6184629;23;20022;-70
2021/11/25 12:27:30;;;;;;;;;;;20.50;59.60;;;;;;6159952;23;20487;-70
2021/11/25 12:30:00;;;;;;;0.70;0.50;;;20.40;59.30;;;;;;6184567;23;19931;-70
2021/11/25 12:32:44;;;;;;;0.40;0.40;;;20.40;59.70;;;;;;6184298;23;20326;-70
2021/11/25 12:35:24;;;;;;;1.27;0.40;;;20.40;59.50;;;;;;6184470;23;20001;-70
2021/11/25 12:38:02;;;;;;;0.20;0.20;;;20.40;59.60;;;;;;6184150;23;20011;-70
2021/11/25 12:40:28;;;;;;;0.30;0.30;;;20.40;59.60;;;;;;6182944;23;20013;-70
2021/11/25 12:42:55;;;;;;;0.30;0.30;;;20.40;59.60;;;;;;6184486;23;20028;-70
2021/11/25 12:45:24;;;;;;;0.43;0.30;;;20.50;59.60;;;;;;6182416;23;20436;-70
2021/11/25 12:48:05;;;;;;;0.73;0.38;;;20.50;59.60;;;;;;6158775;23;20032;-70
2021/11/25 12:50:35;;;;;;;0.40;0.40;;;20.50;59.40;;;;;;6183950;23;20005;-70
2021/11/25 12:53:07;;;;;;;0.20;0.20;;;20.50;59.50;;;;;;6184616;23;20008;-70
2021/11/25 12:55:33;;;;;;;0.35;0.35;;;20.50;59.50;;;;;;6184179;23;20464;-70
2021/11/25 12:57:58;;;;;;;0.30;0.28;;;20.50;59.50;;;;;;6184615;23;20009;-70
2021/11/25 13:00:26;;;;;;;0.30;0.30;;;20.50;59.40;;;;;;6184131;23;20012;-70